createdAt,value
2018-01-24T00:00:33.908Z,100263
2018-01-24T00:01:39.100Z,100269
2018-01-24T00:02:44.562Z,100272
2018-01-24T00:03:50.181Z,100272
2018-01-24T00:04:55.118Z,100257
2018-01-24T00:06:00.287Z,100272
2018-01-24T00:07:05.850Z,100263
2018-01-24T00:08:10.765Z,100272
2018-01-24T00:09:15.942Z,100269
2018-01-24T00:10:21.685Z,100260
2018-01-24T00:11:27.166Z,100272
2018-01-24T00:12:32.717Z,100260
2018-01-24T00:13:38.223Z,100260
2018-01-24T00:14:43.707Z,100263
2018-01-24T00:15:49.536Z,100269
2018-01-24T00:16:55.035Z,100269
2018-01-24T00:17:59.956Z,100263
2018-01-24T00:19:05.297Z,100278
2018-01-24T00:20:09.625Z,100272
2018-01-24T00:21:14.855Z,100272
2018-01-24T00:22:20.597Z,100266
2018-01-24T00:23:25.764Z,100286
2018-01-24T00:24:31.500Z,100280
2018-01-24T00:25:36.690Z,100283
2018-01-24T00:26:42.152Z,100269
2018-01-24T00:27:47.878Z,100275
2018-01-24T00:28:53.328Z,100283
2018-01-24T00:29:58.829Z,100278
2018-01-24T00:31:04.107Z,100278
2018-01-24T00:32:08.709Z,100266
2018-01-24T00:33:14.169Z,100288
2018-01-24T00:34:19.893Z,100275
2018-01-24T00:35:25.370Z,100269
2018-01-24T00:36:31.076Z,100269
2018-01-24T00:37:36.007Z,100278
2018-01-24T00:38:41.228Z,100278
2018-01-24T00:39:46.534Z,100278
2018-01-24T00:40:52.022Z,100283
2018-01-24T00:41:57.486Z,100269
2018-01-24T00:43:03.132Z,100272
2018-01-24T00:44:07.738Z,100272
2018-01-24T00:45:12.926Z,100280
2018-01-24T00:46:18.383Z,100280
2018-01-24T00:47:23.865Z,100266
2018-01-24T00:48:29.831Z,100275
2018-01-24T00:49:35.304Z,100272
2018-01-24T00:50:40.505Z,100272
2018-01-24T00:51:46.220Z,100272
2018-01-24T00:52:51.411Z,100278
2018-01-24T00:53:56.314Z,100278
2018-01-24T00:55:01.396Z,100275
2018-01-24T00:56:06.571Z,100278
2018-01-24T00:57:11.459Z,100272
2018-01-24T00:58:16.999Z,100266
2018-01-24T00:59:22.482Z,100263
2018-01-24T01:00:28.418Z,100263
2018-01-24T01:01:33.894Z,100266
2018-01-24T01:02:39.076Z,100286
2018-01-24T01:03:44.811Z,100283
2018-01-24T01:04:50.285Z,100260
2018-01-24T01:05:55.766Z,100254
2018-01-24T01:07:01.021Z,100254
2018-01-24T01:08:05.940Z,100257
2018-01-24T01:09:11.438Z,100248
2018-01-24T01:10:16.327Z,100257
2018-01-24T01:11:21.772Z,100254
2018-01-24T01:12:27.561Z,100248
2018-01-24T01:13:32.722Z,100257
2018-01-24T01:14:37.634Z,100257
2018-01-24T01:15:43.255Z,100251
2018-01-24T01:16:48.711Z,100251
2018-01-24T01:17:53.892Z,100260
2018-01-24T01:18:59.418Z,100260
2018-01-24T01:20:04.613Z,100254
2018-01-24T01:21:09.804Z,100248
2018-01-24T01:22:15.322Z,100257
2018-01-24T01:23:20.804Z,100254
2018-01-24T01:24:26.679Z,100257
2018-01-24T01:25:31.899Z,100266
2018-01-24T01:26:36.799Z,100263
2018-01-24T01:27:42.718Z,100263
2018-01-24T01:28:47.899Z,100263
2018-01-24T01:29:53.375Z,100257
2018-01-24T01:30:58.602Z,100257
2018-01-24T01:32:03.786Z,100254
2018-01-24T01:33:08.974Z,100260
2018-01-24T01:34:14.707Z,100248
2018-01-24T01:35:20.167Z,100251
2018-01-24T01:36:40.234Z,100243
2018-01-24T01:37:45.410Z,100248
2018-01-24T01:38:50.591Z,100254
2018-01-24T01:39:56.366Z,100248
2018-01-24T01:41:01.827Z,100251
2018-01-24T01:42:05.914Z,100251
2018-01-24T01:43:11.654Z,100251
2018-01-24T01:44:17.144Z,100248
2018-01-24T01:45:22.326Z,100243
2018-01-24T01:46:28.410Z,100245
2018-01-24T01:47:33.876Z,100260
2018-01-24T01:48:39.627Z,100237
2018-01-24T01:49:45.101Z,100248
2018-01-24T01:50:50.585Z,100240
2018-01-24T01:51:56.327Z,100231
2018-01-24T01:53:00.400Z,100251
2018-01-24T01:54:04.746Z,100240
2018-01-24T01:55:09.919Z,100240
2018-01-24T01:56:15.362Z,100228
2018-01-24T01:57:20.540Z,100225
2018-01-24T01:58:25.883Z,100216
2018-01-24T01:59:31.338Z,100219
2018-01-24T02:00:36.802Z,100216
2018-01-24T02:01:42.257Z,100216
2018-01-24T02:02:47.744Z,100234
2018-01-24T02:03:53.455Z,100231
2018-01-24T02:04:57.795Z,100225
2018-01-24T02:06:03.239Z,100216
2018-01-24T02:07:09.068Z,100208
2018-01-24T02:08:14.537Z,100222
2018-01-24T02:09:19.730Z,100222
2018-01-24T02:10:25.190Z,100216
2018-01-24T02:11:30.632Z,100205
2018-01-24T02:12:36.259Z,100219
2018-01-24T02:13:41.440Z,100228
2018-01-24T02:14:46.912Z,100211
2018-01-24T02:15:52.625Z,100222
2018-01-24T02:16:57.837Z,100225
2018-01-24T02:18:03.017Z,100225
2018-01-24T02:19:08.657Z,100222
2018-01-24T02:20:13.888Z,100222
2018-01-24T02:21:19.323Z,100213
2018-01-24T02:22:25.029Z,100219
2018-01-24T02:23:30.225Z,100228
2018-01-24T02:24:36.142Z,100231
2018-01-24T02:25:41.315Z,100240
2018-01-24T02:26:46.785Z,100225
2018-01-24T02:27:52.615Z,100219
2018-01-24T02:28:58.083Z,100216
2018-01-24T02:30:03.288Z,100234
2018-01-24T02:31:08.766Z,100231
2018-01-24T02:32:14.223Z,100222
2018-01-24T02:33:19.702Z,100234
2018-01-24T02:34:25.191Z,100234
2018-01-24T02:35:29.824Z,100237
2018-01-24T02:36:35.513Z,100237
2018-01-24T02:37:40.952Z,100242
2018-01-24T02:38:46.156Z,100237
2018-01-24T02:39:51.899Z,100228
2018-01-24T02:40:57.067Z,100228
2018-01-24T02:42:01.953Z,100222
2018-01-24T02:43:07.744Z,100234
2018-01-24T02:44:12.681Z,100237
2018-01-24T02:45:18.159Z,100245
2018-01-24T02:46:23.864Z,100240
2018-01-24T02:47:29.353Z,100237
2018-01-24T02:48:35.028Z,100231
2018-01-24T02:49:40.522Z,100242
2018-01-24T02:50:45.704Z,100228
2018-01-24T02:51:51.217Z,100231
2018-01-24T02:52:56.677Z,100234
2018-01-24T02:54:01.593Z,100237
2018-01-24T02:55:07.046Z,100234
2018-01-24T02:56:12.531Z,100234
2018-01-24T02:57:17.986Z,100228
2018-01-24T02:58:23.703Z,100228
2018-01-24T02:59:29.158Z,100225
2018-01-24T03:00:35.162Z,100219
2018-01-24T03:01:40.624Z,100228
2018-01-24T03:02:46.087Z,100242
2018-01-24T03:03:51.905Z,100260
2018-01-24T03:04:57.126Z,100231
2018-01-24T03:06:02.606Z,100228
2018-01-24T03:07:07.936Z,100240
2018-01-24T03:08:13.167Z,100234
2018-01-24T03:09:18.368Z,100245
2018-01-24T03:10:23.893Z,100237
2018-01-24T03:11:29.365Z,100225
2018-01-24T03:12:35.017Z,100225
2018-01-24T03:13:39.658Z,100240
2018-01-24T03:14:44.866Z,100228
2018-01-24T03:15:50.651Z,100228
2018-01-24T03:16:56.091Z,100228
2018-01-24T03:18:01.262Z,100228
2018-01-24T03:19:05.937Z,100240
2018-01-24T03:20:11.402Z,100231
2018-01-24T03:21:16.856Z,100225
2018-01-24T03:22:22.312Z,100228
2018-01-24T03:23:27.520Z,100225
2018-01-24T03:24:33.240Z,100225
2018-01-24T03:25:38.686Z,100237
2018-01-24T03:26:44.159Z,100222
2018-01-24T03:27:49.734Z,100222
2018-01-24T03:28:55.208Z,100231
2018-01-24T03:30:00.373Z,100222
2018-01-24T03:31:05.800Z,100231
2018-01-24T03:32:10.726Z,100225
2018-01-24T03:33:16.192Z,100231
2018-01-24T03:34:21.929Z,100231
2018-01-24T03:35:27.399Z,100219
2018-01-24T03:36:33.136Z,100240
2018-01-24T03:37:38.622Z,100228
2018-01-24T03:38:43.824Z,100208
2018-01-24T03:39:48.785Z,100222
2018-01-24T03:40:54.254Z,100211
2018-01-24T03:41:59.449Z,100213
2018-01-24T03:43:04.893Z,100211
2018-01-24T03:44:10.081Z,100202
2018-01-24T03:45:15.287Z,100213
2018-01-24T03:46:21.032Z,100219
2018-01-24T03:47:26.208Z,100208
2018-01-24T03:48:32.186Z,100219
2018-01-24T03:49:37.358Z,100213
2018-01-24T03:50:42.830Z,100219
2018-01-24T03:51:48.464Z,100205
2018-01-24T03:52:53.644Z,100205
2018-01-24T03:53:59.111Z,100202
2018-01-24T03:55:04.667Z,100208
2018-01-24T03:56:09.316Z,100208
2018-01-24T03:57:14.785Z,100205
2018-01-24T03:58:20.497Z,100211
2018-01-24T03:59:25.105Z,100193
2018-01-24T04:00:30.555Z,100202
2018-01-24T04:01:36.040Z,100202
2018-01-24T04:02:41.233Z,100213
2018-01-24T04:03:46.948Z,100231
2018-01-24T04:04:52.416Z,100205
2018-01-24T04:05:57.885Z,100219
2018-01-24T04:07:02.735Z,100208
2018-01-24T04:08:08.204Z,100205
2018-01-24T04:09:13.641Z,100208
2018-01-24T04:10:19.428Z,100219
2018-01-24T04:11:24.642Z,100222
2018-01-24T04:12:30.299Z,100210
2018-01-24T04:13:35.468Z,100216
2018-01-24T04:14:40.954Z,100213
2018-01-24T04:15:46.693Z,100208
2018-01-24T04:16:51.862Z,100205
2018-01-24T04:17:57.333Z,100213
2018-01-24T04:19:02.805Z,100216
2018-01-24T04:20:08.023Z,100216
2018-01-24T04:21:13.547Z,100202
2018-01-24T04:22:18.856Z,100208
2018-01-24T04:23:24.347Z,100208
2018-01-24T04:24:30.068Z,100202
2018-01-24T04:25:35.241Z,100202
2018-01-24T04:26:40.460Z,100211
2018-01-24T04:27:46.324Z,100205
2018-01-24T04:28:51.792Z,100219
2018-01-24T04:29:56.960Z,100211
2018-01-24T04:31:02.410Z,100222
2018-01-24T04:32:07.016Z,100216
2018-01-24T04:33:11.924Z,100216
2018-01-24T04:34:17.460Z,100208
2018-01-24T04:35:22.640Z,100213
2018-01-24T04:36:28.363Z,100219
2018-01-24T04:37:33.826Z,100219
2018-01-24T04:38:39.307Z,100216
2018-01-24T04:39:45.226Z,100216
2018-01-24T04:40:50.107Z,100219
2018-01-24T04:41:55.292Z,100222
2018-01-24T04:43:00.734Z,100216
2018-01-24T04:44:05.944Z,100225
2018-01-24T04:45:11.397Z,100222
2018-01-24T04:46:17.126Z,100231
2018-01-24T04:47:22.620Z,100225
2018-01-24T04:48:27.959Z,100240
2018-01-24T04:49:33.143Z,100222
2018-01-24T04:50:38.619Z,100228
2018-01-24T04:51:44.344Z,100228
2018-01-24T04:52:49.241Z,100228
2018-01-24T04:53:54.735Z,100228
2018-01-24T04:55:00.375Z,100228
2018-01-24T04:56:05.005Z,100225
2018-01-24T04:57:09.957Z,100225
2018-01-24T04:58:15.387Z,100231
2018-01-24T04:59:20.575Z,100234
2018-01-24T05:00:40.742Z,100219
2018-01-24T05:01:45.981Z,100234
2018-01-24T05:02:51.458Z,100222
2018-01-24T05:03:57.179Z,100228
2018-01-24T05:05:02.670Z,100228
2018-01-24T05:06:08.158Z,100222
2018-01-24T05:07:13.947Z,100216
2018-01-24T05:08:19.131Z,100211
2018-01-24T05:09:39.607Z,100222
2018-01-24T05:10:45.107Z,100219
2018-01-24T05:11:50.574Z,100228
2018-01-24T05:12:56.295Z,100234
2018-01-24T05:14:01.196Z,100225
2018-01-24T05:15:06.114Z,100225
2018-01-24T05:16:11.625Z,100219
2018-01-24T05:17:17.083Z,100231
2018-01-24T05:18:22.543Z,100228
2018-01-24T05:19:42.396Z,100222
2018-01-24T05:20:47.869Z,100219
2018-01-24T05:21:53.641Z,100228
2018-01-24T05:22:59.087Z,100225
2018-01-24T05:24:04.284Z,100225
2018-01-24T05:25:09.989Z,100222
2018-01-24T05:26:15.468Z,100228
2018-01-24T05:27:20.673Z,100237
2018-01-24T05:28:26.740Z,100228
2018-01-24T05:29:31.942Z,100234
2018-01-24T05:30:37.523Z,100228
2018-01-24T05:31:42.462Z,100213
2018-01-24T05:32:47.625Z,100237
2018-01-24T05:33:53.458Z,100219
2018-01-24T05:34:58.646Z,100231
2018-01-24T05:36:16.546Z,100231
2018-01-24T05:37:22.047Z,100225
2018-01-24T05:38:27.531Z,100225
2018-01-24T05:39:32.699Z,100228
2018-01-24T05:40:38.146Z,100228
2018-01-24T05:41:43.650Z,100228
2018-01-24T05:42:49.383Z,100234
2018-01-24T05:43:54.036Z,100234
2018-01-24T05:44:59.199Z,100234
2018-01-24T05:46:04.615Z,100225
2018-01-24T05:47:09.778Z,100225
2018-01-24T05:48:15.231Z,100231
2018-01-24T05:49:20.699Z,100225
2018-01-24T05:50:26.186Z,100222
2018-01-24T05:51:31.700Z,100216
2018-01-24T05:52:36.868Z,100228
2018-01-24T05:53:41.782Z,100216
2018-01-24T05:54:47.486Z,100213
2018-01-24T05:55:52.701Z,100225
2018-01-24T05:56:58.173Z,100216
2018-01-24T05:58:03.071Z,100216
2018-01-24T05:59:07.683Z,100219
2018-01-24T06:00:12.874Z,100211
2018-01-24T06:01:38.591Z,100211
2018-01-24T06:02:44.070Z,100216
2018-01-24T06:03:49.857Z,100231
2018-01-24T06:04:55.052Z,100213
2018-01-24T06:06:00.237Z,100222
2018-01-24T06:07:05.885Z,100219
2018-01-24T06:08:11.359Z,100211
2018-01-24T06:09:16.539Z,100219
2018-01-24T06:10:22.251Z,100208
2018-01-24T06:11:27.721Z,100211
2018-01-24T06:12:33.752Z,100208
2018-01-24T06:13:38.939Z,100208
2018-01-24T06:14:44.394Z,100205
2018-01-24T06:15:50.261Z,100205
2018-01-24T06:16:55.473Z,100213
2018-01-24T06:18:00.082Z,100219
2018-01-24T06:19:05.527Z,100213
2018-01-24T06:20:10.760Z,100205
2018-01-24T06:21:15.639Z,100208
2018-01-24T06:22:21.368Z,100199
2018-01-24T06:23:26.559Z,100208
2018-01-24T06:24:32.341Z,100202
2018-01-24T06:25:37.795Z,100211
2018-01-24T06:26:42.949Z,100208
2018-01-24T06:27:48.703Z,100199
2018-01-24T06:28:53.911Z,100199
2018-01-24T06:29:59.115Z,100196
2018-01-24T06:31:04.238Z,100205
2018-01-24T06:32:09.764Z,100199
2018-01-24T06:33:15.221Z,100199
2018-01-24T06:34:20.501Z,100193
2018-01-24T06:35:26.021Z,100196
2018-01-24T06:36:31.749Z,100196
2018-01-24T06:37:37.219Z,100199
2018-01-24T06:38:42.686Z,100202
2018-01-24T06:39:47.266Z,100193
2018-01-24T06:40:52.717Z,100199
2018-01-24T06:41:58.189Z,100190
2018-01-24T06:43:03.610Z,100199
2018-01-24T06:44:09.114Z,100190
2018-01-24T06:45:14.301Z,100182
2018-01-24T06:46:19.489Z,100193
2018-01-24T06:47:24.982Z,100184
2018-01-24T06:48:30.836Z,100193
2018-01-24T06:49:36.006Z,100193
2018-01-24T06:50:41.193Z,100196
2018-01-24T06:51:46.929Z,100205
2018-01-24T06:52:52.425Z,100196
2018-01-24T06:53:57.624Z,100202
2018-01-24T06:55:02.043Z,100199
2018-01-24T06:56:07.784Z,100199
2018-01-24T06:57:12.976Z,100202
2018-01-24T06:58:18.695Z,100202
2018-01-24T06:59:23.892Z,100199
2018-01-24T07:00:29.679Z,100202
2018-01-24T07:01:34.579Z,100211
2018-01-24T07:02:39.780Z,100211
2018-01-24T07:03:45.295Z,100193
2018-01-24T07:04:50.994Z,100199
2018-01-24T07:05:56.473Z,100211
2018-01-24T07:07:02.184Z,100202
2018-01-24T07:08:07.613Z,100193
2018-01-24T07:09:12.515Z,100196
2018-01-24T07:10:18.339Z,100202
2018-01-24T07:11:23.803Z,100199
2018-01-24T07:12:29.675Z,100184
2018-01-24T07:13:35.135Z,100199
2018-01-24T07:14:40.601Z,100193
2018-01-24T07:15:46.149Z,100187
2018-01-24T07:16:51.623Z,100193
2018-01-24T07:17:57.087Z,100190
2018-01-24T07:19:02.231Z,100187
2018-01-24T07:20:07.587Z,100187
2018-01-24T07:21:13.087Z,100190
2018-01-24T07:22:18.823Z,100187
2018-01-24T07:23:24.036Z,100182
2018-01-24T07:24:29.914Z,100187
2018-01-24T07:25:35.165Z,100176
2018-01-24T07:26:40.657Z,100184
2018-01-24T07:27:45.816Z,100167
2018-01-24T07:28:51.294Z,100179
2018-01-24T07:29:56.768Z,100176
2018-01-24T07:31:01.916Z,100167
2018-01-24T07:32:07.380Z,100170
2018-01-24T07:33:12.825Z,100176
2018-01-24T07:34:18.010Z,100179
2018-01-24T07:35:23.182Z,100176
2018-01-24T07:36:28.860Z,100176
2018-01-24T07:37:34.050Z,100164
2018-01-24T07:38:39.455Z,100167
2018-01-24T07:39:44.467Z,100158
2018-01-24T07:40:49.661Z,100167
2018-01-24T07:41:55.117Z,100170
2018-01-24T07:43:00.490Z,100155
2018-01-24T07:44:05.679Z,100164
2018-01-24T07:45:10.899Z,100158
2018-01-24T07:46:16.042Z,100161
2018-01-24T07:47:21.239Z,100167
2018-01-24T07:48:27.200Z,100173
2018-01-24T07:49:32.683Z,100176
2018-01-24T07:50:38.139Z,100167
2018-01-24T07:51:43.729Z,100167
2018-01-24T07:52:48.922Z,100167
2018-01-24T07:53:54.363Z,100164
2018-01-24T07:54:59.496Z,100167
2018-01-24T07:56:04.383Z,100170
2018-01-24T07:57:09.844Z,100164
2018-01-24T07:58:15.554Z,100167
2018-01-24T07:59:20.732Z,100167
2018-01-24T08:00:26.608Z,100167
2018-01-24T08:01:31.789Z,100176
2018-01-24T08:02:36.950Z,100164
2018-01-24T08:03:42.491Z,100170
2018-01-24T08:04:47.718Z,100176
2018-01-24T08:05:52.610Z,100176
2018-01-24T08:06:58.112Z,100167
2018-01-24T08:08:02.734Z,100182
2018-01-24T08:09:08.228Z,100173
2018-01-24T08:10:13.675Z,100173
2018-01-24T08:11:18.869Z,100167
2018-01-24T08:12:24.354Z,100170
2018-01-24T08:13:44.494Z,100158
2018-01-24T08:14:49.956Z,100179
2018-01-24T08:15:55.785Z,100170
2018-01-24T08:17:00.960Z,100176
2018-01-24T08:18:05.893Z,100179
2018-01-24T08:19:11.657Z,100176
2018-01-24T08:20:17.050Z,100167
2018-01-24T08:21:22.221Z,100170
2018-01-24T08:22:27.366Z,100173
2018-01-24T08:23:32.564Z,100179
2018-01-24T08:24:38.296Z,100176
2018-01-24T08:25:43.765Z,100179
2018-01-24T08:26:49.254Z,100176
2018-01-24T08:27:54.564Z,100176
2018-01-24T08:29:00.027Z,100182
2018-01-24T08:30:05.240Z,100176
2018-01-24T08:31:10.419Z,100179
2018-01-24T08:32:15.615Z,100176
2018-01-24T08:33:20.849Z,100185
2018-01-24T08:34:26.687Z,100185
2018-01-24T08:35:32.471Z,100187
2018-01-24T08:36:37.856Z,100176
2018-01-24T08:37:43.329Z,100179
2018-01-24T08:38:48.522Z,100185
2018-01-24T08:39:53.505Z,100190
2018-01-24T08:40:58.418Z,100187
2018-01-24T08:42:03.596Z,100193
2018-01-24T08:43:09.308Z,100182
2018-01-24T08:44:14.803Z,100173
2018-01-24T08:45:19.703Z,100185
2018-01-24T08:46:25.521Z,100187
2018-01-24T08:47:30.986Z,100187
2018-01-24T08:48:36.764Z,100182
2018-01-24T08:49:42.259Z,100182
2018-01-24T08:50:47.425Z,100187
2018-01-24T08:51:53.422Z,100179
2018-01-24T08:52:58.310Z,100173
2018-01-24T08:54:03.518Z,100182
2018-01-24T08:55:09.077Z,100176
2018-01-24T08:56:14.542Z,100170
2018-01-24T08:57:19.708Z,100182
2018-01-24T08:58:25.264Z,100179
2018-01-24T08:59:30.332Z,100173
2018-01-24T09:00:36.048Z,100176
2018-01-24T09:01:41.523Z,100170
2018-01-24T09:02:46.705Z,100179
2018-01-24T09:03:51.909Z,100176
2018-01-24T09:04:57.101Z,100176
2018-01-24T09:06:02.568Z,100173
2018-01-24T09:07:08.192Z,100179
2018-01-24T09:08:13.410Z,100173
2018-01-24T09:09:18.582Z,100182
2018-01-24T09:10:24.112Z,100173
2018-01-24T09:11:29.609Z,100173
2018-01-24T09:12:35.324Z,100176
2018-01-24T09:13:40.554Z,100173
2018-01-24T09:14:45.735Z,100176
2018-01-24T09:15:51.154Z,100170
2018-01-24T09:16:56.634Z,100179
2018-01-24T09:18:01.234Z,100170
2018-01-24T09:19:06.180Z,100173
2018-01-24T09:20:11.678Z,100173
2018-01-24T09:21:17.061Z,100167
2018-01-24T09:22:22.494Z,100173
2018-01-24T09:23:27.391Z,100167
2018-01-24T09:24:32.782Z,100173
2018-01-24T09:25:37.967Z,100179
2018-01-24T09:26:43.155Z,100176
2018-01-24T09:27:48.933Z,100167
2018-01-24T09:28:54.096Z,100167
2018-01-24T09:29:59.556Z,100158
2018-01-24T09:31:05.093Z,100167
2018-01-24T09:32:10.039Z,100173
2018-01-24T09:33:15.213Z,100179
2018-01-24T09:34:20.680Z,100179
2018-01-24T09:35:26.172Z,100170
2018-01-24T09:36:31.707Z,100179
2018-01-24T09:37:37.175Z,100176
2018-01-24T09:38:42.656Z,100173
2018-01-24T09:39:48.128Z,100179
2018-01-24T09:40:53.613Z,100173
2018-01-24T09:41:59.244Z,100173
2018-01-24T09:43:04.716Z,100179
2018-01-24T09:44:09.647Z,100173
2018-01-24T09:45:15.118Z,100173
2018-01-24T09:46:20.723Z,100176
2018-01-24T09:47:25.935Z,100161
2018-01-24T09:48:32.061Z,100158
2018-01-24T09:49:37.384Z,100176
2018-01-24T09:50:42.760Z,100161
2018-01-24T09:51:48.197Z,100161
2018-01-24T09:52:53.389Z,100161
2018-01-24T09:53:58.576Z,100170
2018-01-24T09:55:04.025Z,100167
2018-01-24T09:56:09.191Z,100173
2018-01-24T09:57:14.683Z,100170
2018-01-24T09:58:20.162Z,100161
2018-01-24T09:59:25.639Z,100164
2018-01-24T10:00:31.021Z,100153
2018-01-24T10:01:36.225Z,100164
2018-01-24T10:02:41.115Z,100164
2018-01-24T10:03:46.617Z,100167
2018-01-24T10:04:52.073Z,100170
2018-01-24T10:05:57.634Z,100170
2018-01-24T10:07:02.809Z,100159
2018-01-24T10:08:08.014Z,100159
2018-01-24T10:09:13.602Z,100153
2018-01-24T10:10:19.134Z,100153
2018-01-24T10:11:24.615Z,100150
2018-01-24T10:12:30.175Z,100150
2018-01-24T10:13:35.645Z,100150
2018-01-24T10:14:41.145Z,100136
2018-01-24T10:15:46.906Z,100145
2018-01-24T10:16:52.380Z,100142
2018-01-24T10:17:57.296Z,100136
2018-01-24T10:19:02.064Z,100139
2018-01-24T10:20:07.024Z,100133
2018-01-24T10:21:12.481Z,100128
2018-01-24T10:22:18.301Z,100134
2018-01-24T10:23:23.501Z,100116
2018-01-24T10:24:28.713Z,100119
2018-01-24T10:25:33.645Z,100125
2018-01-24T10:26:38.846Z,100125
2018-01-24T10:27:44.789Z,100119
2018-01-24T10:28:50.274Z,100110
2018-01-24T10:29:55.744Z,100119
2018-01-24T10:31:01.021Z,100113
2018-01-24T10:32:05.656Z,100113
2018-01-24T10:33:10.866Z,100125
2018-01-24T10:34:16.294Z,100122
2018-01-24T10:35:21.189Z,100107
2018-01-24T10:36:26.841Z,100113
2018-01-24T10:37:32.538Z,100104
2018-01-24T10:38:38.011Z,100104
2018-01-24T10:39:43.537Z,100096
2018-01-24T10:40:48.980Z,100096
2018-01-24T10:41:54.191Z,100087
2018-01-24T10:42:59.807Z,100099
2018-01-24T10:44:04.991Z,100096
2018-01-24T10:45:10.097Z,100084
2018-01-24T10:46:15.848Z,100084
2018-01-24T10:47:21.308Z,100084
2018-01-24T10:48:27.241Z,100078
2018-01-24T10:49:32.397Z,100075
2018-01-24T10:50:37.875Z,100062
2018-01-24T10:51:43.461Z,100073
2018-01-24T10:52:48.940Z,100075
2018-01-24T10:53:54.146Z,100075
2018-01-24T10:54:59.310Z,100068
2018-01-24T10:56:04.508Z,100065
2018-01-24T10:57:09.924Z,100059
2018-01-24T10:58:15.647Z,100065
2018-01-24T10:59:20.565Z,100056
2018-01-24T11:00:40.674Z,100041
2018-01-24T11:01:45.576Z,100044
2018-01-24T11:02:50.756Z,100050
2018-01-24T11:03:56.602Z,100030
2018-01-24T11:05:02.058Z,100036
2018-01-24T11:06:06.989Z,100039
2018-01-24T11:07:12.186Z,100036
2018-01-24T11:08:17.703Z,100039
2018-01-24T11:09:22.916Z,100021
2018-01-24T11:10:43.296Z,100024
2018-01-24T11:11:48.491Z,100033
2018-01-24T11:12:54.118Z,100021
2018-01-24T11:13:59.348Z,100018
2018-01-24T11:15:04.532Z,100009
2018-01-24T11:16:10.337Z,100021
2018-01-24T11:17:15.826Z,100015
2018-01-24T11:18:20.711Z,100015
2018-01-24T11:19:25.570Z,99998
2018-01-24T11:20:31.019Z,99998
2018-01-24T11:21:36.450Z,100004
2018-01-24T11:22:41.640Z,99995
2018-01-24T11:23:46.818Z,100004
2018-01-24T11:24:52.543Z,99989
2018-01-24T11:25:58.219Z,99992
2018-01-24T11:27:03.394Z,99989
2018-01-24T11:28:08.680Z,99989
2018-01-24T11:29:14.133Z,99977
2018-01-24T11:30:19.608Z,99977
2018-01-24T11:31:24.393Z,99977
2018-01-24T11:32:29.863Z,99977
2018-01-24T11:33:35.312Z,99977
2018-01-24T11:34:40.774Z,99975
2018-01-24T11:35:45.976Z,99983
2018-01-24T11:36:51.736Z,99975
2018-01-24T11:37:57.409Z,99975
2018-01-24T11:39:02.885Z,99980
2018-01-24T11:40:08.325Z,99967
2018-01-24T11:41:13.727Z,99980
2018-01-24T11:42:18.934Z,99977
2018-01-24T11:43:24.389Z,99975
2018-01-24T11:44:29.556Z,99975
2018-01-24T11:45:35.529Z,99969
2018-01-24T11:46:41.005Z,99972
2018-01-24T11:47:46.499Z,99969
2018-01-24T11:48:51.723Z,99980
2018-01-24T11:49:57.369Z,99958
2018-01-24T11:51:02.838Z,99958
2018-01-24T11:52:08.757Z,99958
2018-01-24T11:53:14.164Z,99955
2018-01-24T11:54:19.344Z,99961
2018-01-24T11:55:24.776Z,99949
2018-01-24T11:56:30.265Z,99946
2018-01-24T11:57:35.631Z,99938
2018-01-24T11:58:41.095Z,99946
2018-01-24T11:59:46.563Z,99943
2018-01-24T12:00:52.109Z,99949
2018-01-24T12:01:57.276Z,99941
2018-01-24T12:03:02.607Z,99935
2018-01-24T12:04:07.589Z,99938
2018-01-24T12:05:12.969Z,99932
2018-01-24T12:06:18.418Z,99941
2018-01-24T12:07:24.085Z,99929
2018-01-24T12:08:28.990Z,99932
2018-01-24T12:09:34.540Z,99914
2018-01-24T12:10:40.425Z,99935
2018-01-24T12:11:45.741Z,99929
2018-01-24T12:12:51.445Z,99929
2018-01-24T12:13:56.936Z,99929
2018-01-24T12:15:02.077Z,99923
2018-01-24T12:16:07.006Z,99926
2018-01-24T12:17:12.465Z,99917
2018-01-24T12:18:17.641Z,99917
2018-01-24T12:19:23.077Z,99914
2018-01-24T12:20:28.269Z,99911
2018-01-24T12:21:33.929Z,99909
2018-01-24T12:22:39.422Z,99906
2018-01-24T12:23:44.881Z,99900
2018-01-24T12:24:50.321Z,99900
2018-01-24T12:25:55.814Z,99900
2018-01-24T12:27:01.318Z,99894
2018-01-24T12:28:06.750Z,99900
2018-01-24T12:29:12.150Z,99894
2018-01-24T12:30:18.302Z,99891
2018-01-24T12:31:23.784Z,99885
2018-01-24T12:32:28.981Z,99882
2018-01-24T12:33:34.682Z,99888
2018-01-24T12:34:39.903Z,99882
2018-01-24T12:35:45.383Z,99877
2018-01-24T12:36:50.921Z,99882
2018-01-24T12:37:56.413Z,99882
2018-01-24T12:39:01.887Z,99882
2018-01-24T12:40:06.813Z,99877
2018-01-24T12:41:11.760Z,99879
2018-01-24T12:42:17.232Z,99879
2018-01-24T12:43:22.853Z,99879
2018-01-24T12:44:28.319Z,99877
2018-01-24T12:45:34.062Z,99885
2018-01-24T12:46:38.977Z,99879
2018-01-24T12:47:44.179Z,99868
2018-01-24T12:48:49.948Z,99874
2018-01-24T12:49:55.426Z,99871
2018-01-24T12:51:00.637Z,99874
2018-01-24T12:52:05.520Z,99871
2018-01-24T12:53:10.454Z,99879
2018-01-24T12:54:15.945Z,99874
2018-01-24T12:55:21.136Z,99868
2018-01-24T12:56:26.343Z,99856
2018-01-24T12:57:31.653Z,99868
2018-01-24T12:58:37.056Z,99865
2018-01-24T12:59:42.539Z,99859
2018-01-24T13:00:48.133Z,99853
2018-01-24T13:01:53.396Z,99845
2018-01-24T13:02:58.885Z,99842
2018-01-24T13:04:04.330Z,99847
2018-01-24T13:05:09.267Z,99845
2018-01-24T13:06:14.756Z,99845
2018-01-24T13:07:20.478Z,99842
2018-01-24T13:08:25.661Z,99850
2018-01-24T13:09:31.138Z,99839
2018-01-24T13:10:36.623Z,99845
2018-01-24T13:11:41.537Z,99830
2018-01-24T13:12:46.673Z,99827
2018-01-24T13:13:51.866Z,99813
2018-01-24T13:14:57.017Z,99819
2018-01-24T13:16:02.660Z,99819
2018-01-24T13:17:07.779Z,99822
2018-01-24T13:18:13.276Z,99813
2018-01-24T13:19:19.083Z,99822
2018-01-24T13:20:24.608Z,99819
2018-01-24T13:21:30.395Z,99802
2018-01-24T13:22:35.609Z,99805
2018-01-24T13:23:40.538Z,99805
2018-01-24T13:24:46.270Z,99822
2018-01-24T13:25:51.735Z,99802
2018-01-24T13:26:57.192Z,99790
2018-01-24T13:28:02.247Z,99796
2018-01-24T13:29:07.082Z,99793
2018-01-24T13:30:12.002Z,99796
2018-01-24T13:31:17.769Z,99785
2018-01-24T13:32:22.933Z,99790
2018-01-24T13:33:28.607Z,99779
2018-01-24T13:34:34.289Z,99777
2018-01-24T13:35:39.773Z,99771
2018-01-24T13:36:45.517Z,99774
2018-01-24T13:37:50.695Z,99771
2018-01-24T13:38:56.411Z,99750
2018-01-24T13:40:01.525Z,99777
2018-01-24T13:41:06.683Z,99768
2018-01-24T13:42:11.865Z,99777